sensor_id;sensor_type;location;lat;lon;timestamp;pressure;altitude;pressure_sealevel;temperature;humidity
6528;BME280;64597;42.664;23.256;2023-06-10T00:01:36;94207.81;;;19.50;70.44
6528;BME280;64597;42.664;23.256;2023-06-10T00:04:02;94205.72;;;19.47;70.24
6528;BME280;64597;42.664;23.256;2023-06-10T00:06:28;94212.34;;;19.49;70.07
6528;BME280;64597;42.664;23.256;2023-06-10T00:08:53;94203.22;;;19.50;70.10
6528;BME280;64597;42.664;23.256;2023-06-10T00:11:21;94195.22;;;19.37;69.78
6528;BME280;64597;42.664;23.256;2023-06-10T00:13:46;94212.56;;;19.39;69.85
6528;BME280;64597;42.664;23.256;2023-06-10T00:16:12;94213.50;;;19.30;70.68
6528;BME280;64597;42.664;23.256;2023-06-10T00:18:37;94211.13;;;19.28;70.27
6528;BME280;64597;42.664;23.256;2023-06-10T00:21:04;94214.91;;;19.27;70.16
6528;BME280;64597;42.664;23.256;2023-06-10T00:23:30;94206.78;;;19.19;70.41
6528;BME280;64597;42.664;23.256;2023-06-10T00:26:03;94196.47;;;19.12;70.08
6528;BME280;64597;42.664;23.256;2023-06-10T00:28:29;94214.19;;;19.22;70.21
6528;BME280;64597;42.664;23.256;2023-06-10T00:30:55;94206.66;;;19.24;69.82
6528;BME280;64597;42.664;23.256;2023-06-10T00:33:22;94214.28;;;19.17;69.90
6528;BME280;64597;42.664;23.256;2023-06-10T00:35:48;94210.13;;;19.11;69.56
6528;BME280;64597;42.664;23.256;2023-06-10T00:38:14;94204.41;;;19.17;69.64
6528;BME280;64597;42.664;23.256;2023-06-10T00:40:40;94211.81;;;19.20;69.94
6528;BME280;64597;42.664;23.256;2023-06-10T00:43:08;94206.28;;;19.17;69.71
6528;BME280;64597;42.664;23.256;2023-06-10T00:45:34;94197.84;;;19.10;70.52
6528;BME280;64597;42.664;23.256;2023-06-10T00:48:01;94190.31;;;19.12;70.23
6528;BME280;64597;42.664;23.256;2023-06-10T00:50:27;94197.34;;;19.08;70.04
6528;BME280;64597;42.664;23.256;2023-06-10T00:52:53;94206.97;;;19.09;69.61
6528;BME280;64597;42.664;23.256;2023-06-10T00:55:19;94202.81;;;19.03;70.05
6528;BME280;64597;42.664;23.256;2023-06-10T00:57:45;94202.56;;;18.99;70.10
6528;BME280;64597;42.664;23.256;2023-06-10T01:00:12;94210.69;;;18.94;69.98
6528;BME280;64597;42.664;23.256;2023-06-10T01:02:38;94210.69;;;18.94;69.73
6528;BME280;64597;42.664;23.256;2023-06-10T01:05:04;94211.56;;;18.89;69.93
6528;BME280;64597;42.664;23.256;2023-06-10T01:10:27;94218.00;;;18.88;69.87
6528;BME280;64597;42.664;23.256;2023-06-10T01:12:59;94217.50;;;18.86;69.62
6528;BME280;64597;42.664;23.256;2023-06-10T01:15:31;94215.63;;;18.87;69.67
6528;BME280;64597;42.664;23.256;2023-06-10T01:18:06;94218.22;;;18.92;69.50
6528;BME280;64597;42.664;23.256;2023-06-10T01:20:36;94216.41;;;18.87;69.38
6528;BME280;64597;42.664;23.256;2023-06-10T01:23:05;94218.97;;;18.79;70.08
6528;BME280;64597;42.664;23.256;2023-06-10T01:25:31;94225.28;;;18.69;70.22
6528;BME280;64597;42.664;23.256;2023-06-10T01:28:28;94223.72;;;18.68;70.15
6528;BME280;64597;42.664;23.256;2023-06-10T01:33:46;94224.09;;;18.75;70.17
6528;BME280;64597;42.664;23.256;2023-06-10T01:36:13;94200.25;;;18.65;70.52
6528;BME280;64597;42.664;23.256;2023-06-10T01:38:43;94205.50;;;18.70;70.31
6528;BME280;64597;42.664;23.256;2023-06-10T01:41:10;94207.22;;;18.80;70.02
6528;BME280;64597;42.664;23.256;2023-06-10T01:43:40;94206.50;;;18.74;69.92
6528;BME280;64597;42.664;23.256;2023-06-10T01:46:06;94179.63;;;18.34;70.51
6528;BME280;64597;42.664;23.256;2023-06-10T01:48:32;94202.91;;;18.65;70.54
6528;BME280;64597;42.664;23.256;2023-06-10T01:50:58;94214.53;;;18.74;70.19
6528;BME280;64597;42.664;23.256;2023-06-10T01:53:23;94201.75;;;18.71;70.27
6528;BME280;64597;42.664;23.256;2023-06-10T01:55:49;94202.16;;;18.78;70.43
6528;BME280;64597;42.664;23.256;2023-06-10T01:58:15;94194.41;;;18.77;69.95
6528;BME280;64597;42.664;23.256;2023-06-10T02:00:40;94196.81;;;18.78;70.34
6528;BME280;64597;42.664;23.256;2023-06-10T02:03:06;94190.25;;;18.71;70.33
6528;BME280;64597;42.664;23.256;2023-06-10T02:05:31;94185.03;;;18.79;70.56
6528;BME280;64597;42.664;23.256;2023-06-10T02:07:57;94184.72;;;18.81;70.28
6528;BME280;64597;42.664;23.256;2023-06-10T02:10:22;94181.78;;;18.82;70.11
6528;BME280;64597;42.664;23.256;2023-06-10T02:12:48;94174.28;;;18.84;70.17
6528;BME280;64597;42.664;23.256;2023-06-10T02:15:13;94170.88;;;18.79;69.93
6528;BME280;64597;42.664;23.256;2023-06-10T02:17:39;94176.03;;;18.89;69.99
6528;BME280;64597;42.664;23.256;2023-06-10T02:20:05;94164.16;;;18.81;70.05
6528;BME280;64597;42.664;23.256;2023-06-10T02:22:32;94178.44;;;18.90;70.27
6528;BME280;64597;42.664;23.256;2023-06-10T02:24:58;94161.78;;;18.80;70.62
6528;BME280;64597;42.664;23.256;2023-06-10T02:27:23;94122.34;;;18.45;70.12
6528;BME280;64597;42.664;23.256;2023-06-10T02:29:50;94170.59;;;18.80;70.16
6528;BME280;64597;42.664;23.256;2023-06-10T02:32:15;94174.22;;;18.71;70.28
6528;BME280;64597;42.664;23.256;2023-06-10T02:34:41;94163.84;;;18.69;70.42
6528;BME280;64597;42.664;23.256;2023-06-10T02:37:08;94171.38;;;18.67;70.35
6528;BME280;64597;42.664;23.256;2023-06-10T02:39:33;94157.69;;;18.55;70.37
6528;BME280;64597;42.664;23.256;2023-06-10T02:41:59;94149.97;;;18.54;70.39
6528;BME280;64597;42.664;23.256;2023-06-10T02:44:24;94164.03;;;18.59;70.40
6528;BME280;64597;42.664;23.256;2023-06-10T02:46:50;94157.00;;;18.63;70.32
6528;BME280;64597;42.664;23.256;2023-06-10T02:49:15;94126.66;;;18.41;70.36
6528;BME280;64597;42.664;23.256;2023-06-10T02:51:41;94154.03;;;18.51;70.81
6528;BME280;64597;42.664;23.256;2023-06-10T02:54:06;94157.38;;;18.57;71.01
6528;BME280;64597;42.664;23.256;2023-06-10T02:56:32;94153.91;;;18.56;71.36
6528;BME280;64597;42.664;23.256;2023-06-10T02:58:58;94149.69;;;18.55;71.30
6528;BME280;64597;42.664;23.256;2023-06-10T03:01:24;94160.34;;;18.55;71.60
6528;BME280;64597;42.664;23.256;2023-06-10T03:03:49;94148.47;;;18.48;71.52
6528;BME280;64597;42.664;23.256;2023-06-10T03:06:16;94167.78;;;18.58;71.63
6528;BME280;64597;42.664;23.256;2023-06-10T03:08:41;94171.16;;;18.64;70.86
6528;BME280;64597;42.664;23.256;2023-06-10T03:11:07;94151.41;;;18.46;71.29
6528;BME280;64597;42.664;23.256;2023-06-10T03:13:32;94170.44;;;18.58;71.56
6528;BME280;64597;42.664;23.256;2023-06-10T03:15:57;94153.66;;;18.39;71.75
6528;BME280;64597;42.664;23.256;2023-06-10T03:18:27;94180.78;;;18.46;71.97
6528;BME280;64597;42.664;23.256;2023-06-10T03:20:54;94162.69;;;18.43;71.52
6528;BME280;64597;42.664;23.256;2023-06-10T03:23:20;94173.88;;;18.45;71.79
6528;BME280;64597;42.664;23.256;2023-06-10T03:25:46;94193.09;;;18.42;71.65
6528;BME280;64597;42.664;23.256;2023-06-10T03:28:11;94197.41;;;18.43;71.83
6528;BME280;64597;42.664;23.256;2023-06-10T03:30:37;94203.25;;;18.45;72.12
6528;BME280;64597;42.664;23.256;2023-06-10T03:33:02;94198.91;;;18.49;72.18
6528;BME280;64597;42.664;23.256;2023-06-10T03:35:28;94198.81;;;18.54;72.32
6528;BME280;64597;42.664;23.256;2023-06-10T03:37:54;94199.91;;;18.53;72.31
6528;BME280;64597;42.664;23.256;2023-06-10T03:40:20;94183.47;;;18.46;73.10
6528;BME280;64597;42.664;23.256;2023-06-10T03:42:45;94191.31;;;18.56;73.34
6528;BME280;64597;42.664;23.256;2023-06-10T03:45:11;94192.97;;;18.52;73.49
6528;BME280;64597;42.664;23.256;2023-06-10T03:47:37;94194.56;;;18.53;73.34
6528;BME280;64597;42.664;23.256;2023-06-10T03:50:04;94195.63;;;18.52;73.60
6528;BME280;64597;42.664;23.256;2023-06-10T03:52:30;94193.78;;;18.53;73.53
6528;BME280;64597;42.664;23.256;2023-06-10T03:54:55;94188.06;;;18.59;73.81
6528;BME280;64597;42.664;23.256;2023-06-10T03:57:21;94187.25;;;18.59;73.42
6528;BME280;64597;42.664;23.256;2023-06-10T03:59:46;94179.53;;;18.57;73.74
6528;BME280;64597;42.664;23.256;2023-06-10T04:02:12;94182.34;;;18.66;73.71
6528;BME280;64597;42.664;23.256;2023-06-10T04:04:37;94191.13;;;18.66;73.54
6528;BME280;64597;42.664;23.256;2023-06-10T04:07:04;94188.47;;;18.66;73.54
6528;BME280;64597;42.664;23.256;2023-06-10T04:09:31;94192.66;;;18.72;73.50
6528;BME280;64597;42.664;23.256;2023-06-10T04:11:57;94187.09;;;18.69;73.78
6528;BME280;64597;42.664;23.256;2023-06-10T04:14:22;94191.66;;;18.68;73.97
6528;BME280;64597;42.664;23.256;2023-06-10T04:16:49;94189.50;;;18.70;73.88
6528;BME280;64597;42.664;23.256;2023-06-10T04:19:15;94201.94;;;18.75;73.48
6528;BME280;64597;42.664;23.256;2023-06-10T04:21:41;94197.41;;;18.75;73.46
6528;BME280;64597;42.664;23.256;2023-06-10T04:24:07;94185.28;;;18.64;73.70
6528;BME280;64597;42.664;23.256;2023-06-10T04:26:32;94199.75;;;18.77;73.90
6528;BME280;64597;42.664;23.256;2023-06-10T04:28:58;94198.91;;;18.81;74.05
6528;BME280;64597;42.664;23.256;2023-06-10T04:31:24;94184.53;;;18.77;74.01
6528;BME280;64597;42.664;23.256;2023-06-10T04:33:49;94206.34;;;18.84;73.75
6528;BME280;64597;42.664;23.256;2023-06-10T04:36:15;94196.16;;;18.86;73.90
6528;BME280;64597;42.664;23.256;2023-06-10T04:38:40;94196.84;;;18.92;74.14
6528;BME280;64597;42.664;23.256;2023-06-10T04:41:06;94200.50;;;18.96;74.15
6528;BME280;64597;42.664;23.256;2023-06-10T04:43:32;94194.84;;;18.98;74.41
6528;BME280;64597;42.664;23.256;2023-06-10T04:45:57;94199.63;;;19.01;74.35
6528;BME280;64597;42.664;23.256;2023-06-10T04:48:23;94203.00;;;19.06;74.01
6528;BME280;64597;42.664;23.256;2023-06-10T04:50:49;94194.66;;;19.08;73.95
6528;BME280;64597;42.664;23.256;2023-06-10T04:53:16;94191.63;;;19.01;73.80
6528;BME280;64597;42.664;23.256;2023-06-10T04:55:42;94196.28;;;19.09;73.73
6528;BME280;64597;42.664;23.256;2023-06-10T04:58:07;94198.63;;;19.10;73.04
6528;BME280;64597;42.664;23.256;2023-06-10T05:00:33;94192.91;;;19.03;73.33
6528;BME280;64597;42.664;23.256;2023-06-10T05:02:58;94197.94;;;19.05;73.22
6528;BME280;64597;42.664;23.256;2023-06-10T05:05:24;94195.59;;;19.03;73.39
6528;BME280;64597;42.664;23.256;2023-06-10T05:07:49;94178.63;;;18.94;73.23
6528;BME280;64597;42.664;23.256;2023-06-10T05:10:15;94193.91;;;19.07;73.18
6528;BME280;64597;42.664;23.256;2023-06-10T05:12:40;94193.59;;;19.09;72.72
6528;BME280;64597;42.664;23.256;2023-06-10T05:15:07;94190.56;;;19.56;76.53
6528;BME280;64597;42.664;23.256;2023-06-10T05:17:33;94188.69;;;20.41;75.02
6528;BME280;64597;42.664;23.256;2023-06-10T05:20:01;94195.22;;;21.02;71.62
6528;BME280;64597;42.664;23.256;2023-06-10T05:22:27;94197.63;;;21.43;68.95
6528;BME280;64597;42.664;23.256;2023-06-10T05:24:53;94197.72;;;21.68;65.16
6528;BME280;64597;42.664;23.256;2023-06-10T05:27:18;94184.81;;;21.87;64.33
6528;BME280;64597;42.664;23.256;2023-06-10T05:29:44;94195.94;;;22.11;63.61
6528;BME280;64597;42.664;23.256;2023-06-10T05:32:11;94183.28;;;22.21;63.00
6528;BME280;64597;42.664;23.256;2023-06-10T05:34:36;94184.88;;;22.47;64.27
6528;BME280;64597;42.664;23.256;2023-06-10T05:37:02;94196.25;;;22.70;66.01
6528;BME280;64597;42.664;23.256;2023-06-10T05:39:28;94195.78;;;22.76;63.87
6528;BME280;64597;42.664;23.256;2023-06-10T05:41:53;94184.22;;;22.93;64.07
6528;BME280;64597;42.664;23.256;2023-06-10T05:44:19;94188.66;;;22.89;62.47
6528;BME280;64597;42.664;23.256;2023-06-10T05:46:44;94198.38;;;23.19;61.68
6528;BME280;64597;42.664;23.256;2023-06-10T05:49:10;94151.63;;;22.86;60.32
6528;BME280;64597;42.664;23.256;2023-06-10T05:51:35;94195.00;;;23.31;59.55
6528;BME280;64597;42.664;23.256;2023-06-10T05:54:02;94193.28;;;23.35;60.38
6528;BME280;64597;42.664;23.256;2023-06-10T05:56:27;94203.06;;;23.39;59.28
6528;BME280;64597;42.664;23.256;2023-06-10T05:58:53;94202.09;;;23.52;58.44
6528;BME280;64597;42.664;23.256;2023-06-10T06:01:18;94198.56;;;23.60;58.27
6528;BME280;64597;42.664;23.256;2023-06-10T06:03:44;94203.28;;;23.63;58.16
6528;BME280;64597;42.664;23.256;2023-06-10T06:06:09;94187.13;;;23.63;59.41
6528;BME280;64597;42.664;23.256;2023-06-10T06:08:35;94201.81;;;23.74;59.15
6528;BME280;64597;42.664;23.256;2023-06-10T06:11:00;94202.56;;;23.84;59.07
6528;BME280;64597;42.664;23.256;2023-06-10T06:13:26;94192.19;;;23.94;58.57
6528;BME280;64597;42.664;23.256;2023-06-10T06:15:51;94113.06;;;23.57;57.73
6528;BME280;64597;42.664;23.256;2023-06-10T06:18:17;94195.47;;;24.29;57.52
6528;BME280;64597;42.664;23.256;2023-06-10T06:20:43;94187.53;;;24.32;57.19
6528;BME280;64597;42.664;23.256;2023-06-10T06:23:09;94185.69;;;24.04;55.76
6528;BME280;64597;42.664;23.256;2023-06-10T06:25:36;94198.38;;;23.65;56.70
6528;BME280;64597;42.664;23.256;2023-06-10T06:28:04;94208.47;;;23.39;57.28
6528;BME280;64597;42.664;23.256;2023-06-10T06:30:29;94213.41;;;23.20;57.09
6528;BME280;64597;42.664;23.256;2023-06-10T06:32:55;94214.25;;;22.95;58.29
6528;BME280;64597;42.664;23.256;2023-06-10T06:35:20;94210.34;;;22.67;58.76
6528;BME280;64597;42.664;23.256;2023-06-10T06:37:46;94213.47;;;22.52;59.29
6528;BME280;64597;42.664;23.256;2023-06-10T06:40:11;94204.94;;;22.33;59.37
6528;BME280;64597;42.664;23.256;2023-06-10T06:42:37;94209.53;;;22.24;60.26
6528;BME280;64597;42.664;23.256;2023-06-10T06:45:03;94221.03;;;22.07;61.09
6528;BME280;64597;42.664;23.256;2023-06-10T06:47:28;94197.50;;;21.95;61.55
6528;BME280;64597;42.664;23.256;2023-06-10T06:49:54;94209.19;;;21.99;61.24
6528;BME280;64597;42.664;23.256;2023-06-10T06:52:19;94200.03;;;22.00;61.66
6528;BME280;64597;42.664;23.256;2023-06-10T06:54:45;94200.50;;;22.02;60.91
6528;BME280;64597;42.664;23.256;2023-06-10T06:57:10;94197.66;;;21.99;61.06
6528;BME280;64597;42.664;23.256;2023-06-10T06:59:36;94200.97;;;22.04;60.94
6528;BME280;64597;42.664;23.256;2023-06-10T07:02:03;94195.94;;;22.11;61.52
6528;BME280;64597;42.664;23.256;2023-06-10T07:04:28;94177.75;;;22.08;60.28
6528;BME280;64597;42.664;23.256;2023-06-10T07:06:54;94195.63;;;22.39;60.50
6528;BME280;64597;42.664;23.256;2023-06-10T07:09:19;94189.91;;;22.49;59.11
6528;BME280;64597;42.664;23.256;2023-06-10T07:11:45;94191.50;;;22.50;59.33
6528;BME280;64597;42.664;23.256;2023-06-10T07:14:10;94165.28;;;22.38;58.94
6528;BME280;64597;42.664;23.256;2023-06-10T07:16:36;94184.88;;;22.56;58.03
6528;BME280;64597;42.664;23.256;2023-06-10T07:19:01;94175.56;;;22.62;58.22
6528;BME280;64597;42.664;23.256;2023-06-10T07:21:27;94174.59;;;22.75;57.38
6528;BME280;64597;42.664;23.256;2023-06-10T07:23:53;94174.56;;;22.83;56.56
6528;BME280;64597;42.664;23.256;2023-06-10T07:26:19;94165.72;;;22.83;55.17
6528;BME280;64597;42.664;23.256;2023-06-10T07:28:45;94156.56;;;22.75;54.19
6528;BME280;64597;42.664;23.256;2023-06-10T07:31:10;94161.63;;;22.77;55.21
6528;BME280;64597;42.664;23.256;2023-06-10T07:33:37;94170.88;;;23.05;54.85
6528;BME280;64597;42.664;23.256;2023-06-10T07:36:05;94179.69;;;23.14;54.29
6528;BME280;64597;42.664;23.256;2023-06-10T07:38:30;94176.84;;;23.19;53.83
6528;BME280;64597;42.664;23.256;2023-06-10T07:40:56;94176.06;;;23.19;53.99
6528;BME280;64597;42.664;23.256;2023-06-10T07:43:22;94169.22;;;23.30;54.77
6528;BME280;64597;42.664;23.256;2023-06-10T07:45:47;94162.69;;;23.77;53.73
6528;BME280;64597;42.664;23.256;2023-06-10T07:48:12;94165.69;;;24.46;51.86
6528;BME280;64597;42.664;23.256;2023-06-10T07:50:38;94174.25;;;24.48;51.46
6528;BME280;64597;42.664;23.256;2023-06-10T07:53:03;94166.38;;;24.76;51.45
6528;BME280;64597;42.664;23.256;2023-06-10T07:55:29;94167.53;;;25.19;49.86
6528;BME280;64597;42.664;23.256;2023-06-10T07:57:55;94119.91;;;24.79;49.26
6528;BME280;64597;42.664;23.256;2023-06-10T08:00:21;94171.50;;;24.89;48.64
6528;BME280;64597;42.664;23.256;2023-06-10T08:02:47;94170.94;;;25.28;47.86
6528;BME280;64597;42.664;23.256;2023-06-10T08:05:12;94173.88;;;25.72;46.22
6528;BME280;64597;42.664;23.256;2023-06-10T08:07:41;94166.69;;;26.12;44.02
6528;BME280;64597;42.664;23.256;2023-06-10T08:10:07;94170.00;;;26.45;45.96
6528;BME280;64597;42.664;23.256;2023-06-10T08:12:33;94169.22;;;27.00;43.66
6528;BME280;64597;42.664;23.256;2023-06-10T08:15:00;94146.28;;;27.25;41.99
6528;BME280;64597;42.664;23.256;2023-06-10T08:17:25;94159.50;;;27.58;41.49
6528;BME280;64597;42.664;23.256;2023-06-10T08:19:51;94147.34;;;27.83;41.49
6528;BME280;64597;42.664;23.256;2023-06-10T08:22:16;94145.72;;;28.13;40.34
6528;BME280;64597;42.664;23.256;2023-06-10T08:24:42;94127.47;;;28.29;39.49
6528;BME280;64597;42.664;23.256;2023-06-10T08:27:08;94146.50;;;28.68;37.97
6528;BME280;64597;42.664;23.256;2023-06-10T08:29:33;94132.47;;;28.85;36.63
6528;BME280;64597;42.664;23.256;2023-06-10T08:31:59;94142.31;;;29.12;36.84
6528;BME280;64597;42.664;23.256;2023-06-10T08:34:25;94132.09;;;29.47;35.88
6528;BME280;64597;42.664;23.256;2023-06-10T08:36:50;94131.34;;;29.73;35.42
6528;BME280;64597;42.664;23.256;2023-06-10T08:39:21;94132.41;;;29.91;34.38
6528;BME280;64597;42.664;23.256;2023-06-10T08:44:29;94130.97;;;30.27;33.79
6528;BME280;64597;42.664;23.256;2023-06-10T08:46:59;94128.84;;;30.39;32.04
6528;BME280;64597;42.664;23.256;2023-06-10T08:49:27;94132.78;;;30.42;31.03
6528;BME280;64597;42.664;23.256;2023-06-10T08:51:58;94120.97;;;30.31;33.06
6528;BME280;64597;42.664;23.256;2023-06-10T08:54:31;94134.44;;;30.50;33.72
6528;BME280;64597;42.664;23.256;2023-06-10T08:56:59;94127.69;;;30.70;37.95
6528;BME280;64597;42.664;23.256;2023-06-10T08:59:26;94122.97;;;30.67;35.73
6528;BME280;64597;42.664;23.256;2023-06-10T09:01:53;94082.94;;;30.71;35.22
6528;BME280;64597;42.664;23.256;2023-06-10T09:04:19;94117.56;;;31.04;32.65
6528;BME280;64597;42.664;23.256;2023-06-10T09:06:46;94115.19;;;30.99;34.15
6528;BME280;64597;42.664;23.256;2023-06-10T09:09:14;94111.28;;;30.96;33.84
6528;BME280;64597;42.664;23.256;2023-06-10T09:11:42;94110.31;;;31.18;35.12
6528;BME280;64597;42.664;23.256;2023-06-10T09:14:07;94114.38;;;31.35;33.22
6528;BME280;64597;42.664;23.256;2023-06-10T09:16:33;94098.16;;;31.45;32.07
6528;BME280;64597;42.664;23.256;2023-06-10T09:18:59;94108.38;;;31.59;37.48
6528;BME280;64597;42.664;23.256;2023-06-10T09:21:25;94108.75;;;31.57;32.54
6528;BME280;64597;42.664;23.256;2023-06-10T09:23:51;94106.19;;;31.79;30.86
6528;BME280;64597;42.664;23.256;2023-06-10T09:26:18;94101.38;;;32.12;31.15
6528;BME280;64597;42.664;23.256;2023-06-10T09:28:49;94088.44;;;31.95;31.98
6528;BME280;64597;42.664;23.256;2023-06-10T09:31:17;94100.38;;;31.36;35.92
6528;BME280;64597;42.664;23.256;2023-06-10T09:33:47;94105.31;;;30.87;36.08
6528;BME280;64597;42.664;23.256;2023-06-10T09:36:21;94103.56;;;30.39;37.01
6528;BME280;64597;42.664;23.256;2023-06-10T09:38:49;94096.72;;;30.22;38.13
6528;BME280;64597;42.664;23.256;2023-06-10T09:41:16;94092.53;;;30.58;36.14
6528;BME280;64597;42.664;23.256;2023-06-10T09:43:45;94088.41;;;31.04;34.18
6528;BME280;64597;42.664;23.256;2023-06-10T09:46:20;94082.47;;;31.35;31.54
6528;BME280;64597;42.664;23.256;2023-06-10T09:48:47;94078.03;;;31.60;31.58
6528;BME280;64597;42.664;23.256;2023-06-10T09:51:14;94081.50;;;31.61;31.20
6528;BME280;64597;42.664;23.256;2023-06-10T09:53:40;94060.50;;;31.61;30.80
6528;BME280;64597;42.664;23.256;2023-06-10T09:56:06;94072.69;;;31.75;29.87
6528;BME280;64597;42.664;23.256;2023-06-10T09:58:39;94064.94;;;31.87;29.71
6528;BME280;64597;42.664;23.256;2023-06-10T10:01:13;94075.56;;;31.96;29.91
6528;BME280;64597;42.664;23.256;2023-06-10T10:03:47;94079.88;;;32.04;30.68
6528;BME280;64597;42.664;23.256;2023-06-10T10:06:14;94060.38;;;32.02;30.56
6528;BME280;64597;42.664;23.256;2023-06-10T10:08:40;94043.66;;;32.03;30.43
6528;BME280;64597;42.664;23.256;2023-06-10T10:11:06;94071.88;;;32.39;30.89
6528;BME280;64597;42.664;23.256;2023-06-10T10:13:33;94058.31;;;32.53;29.96
6528;BME280;64597;42.664;23.256;2023-06-10T10:16:03;94056.00;;;32.62;28.91
6528;BME280;64597;42.664;23.256;2023-06-10T10:18:31;94045.72;;;32.31;27.55
6528;BME280;64597;42.664;23.256;2023-06-10T10:21:00;94058.91;;;32.15;28.26
6528;BME280;64597;42.664;23.256;2023-06-10T10:24:10;94050.09;;;31.30;29.56
6528;BME280;64597;42.664;23.256;2023-06-10T10:26:38;94050.25;;;31.04;32.02
6528;BME280;64597;42.664;23.256;2023-06-10T10:31:56;94050.38;;;31.58;31.27
6528;BME280;64597;42.664;23.256;2023-06-10T10:37:13;94041.97;;;31.92;30.31
6528;BME280;64597;42.664;23.256;2023-06-10T10:39:39;94043.91;;;31.88;30.73
6528;BME280;64597;42.664;23.256;2023-06-10T10:42:05;94039.81;;;31.53;30.38
6528;BME280;64597;42.664;23.256;2023-06-10T10:44:35;94041.19;;;31.33;29.75
6528;BME280;64597;42.664;23.256;2023-06-10T10:47:02;94039.06;;;31.16;31.84
6528;BME280;64597;42.664;23.256;2023-06-10T10:49:30;94033.19;;;31.07;31.09
6528;BME280;64597;42.664;23.256;2023-06-10T10:51:57;94032.22;;;30.89;30.17
6528;BME280;64597;42.664;23.256;2023-06-10T10:54:35;94010.66;;;30.73;31.05
6528;BME280;64597;42.664;23.256;2023-06-10T11:02:40;94014.47;;;31.06;30.35
6528;BME280;64597;42.664;23.256;2023-06-10T11:05:05;94007.44;;;31.01;33.50
6528;BME280;64597;42.664;23.256;2023-06-10T11:07:32;94008.72;;;31.14;32.93
6528;BME280;64597;42.664;23.256;2023-06-10T11:15:09;93978.03;;;31.24;32.46
6528;BME280;64597;42.664;23.256;2023-06-10T11:17:35;94002.22;;;31.29;31.16
6528;BME280;64597;42.664;23.256;2023-06-10T11:20:03;93995.88;;;31.15;29.26
6528;BME280;64597;42.664;23.256;2023-06-10T11:22:29;94004.25;;;30.92;30.50
6528;BME280;64597;42.664;23.256;2023-06-10T11:24:54;93993.59;;;30.80;31.11
6528;BME280;64597;42.664;23.256;2023-06-10T11:27:22;93973.75;;;30.79;31.51
6528;BME280;64597;42.664;23.256;2023-06-10T11:32:34;93986.00;;;30.59;28.80
6528;BME280;64597;42.664;23.256;2023-06-10T11:35:03;93984.19;;;30.34;29.23
6528;BME280;64597;42.664;23.256;2023-06-10T11:37:29;93996.97;;;30.30;29.69
6528;BME280;64597;42.664;23.256;2023-06-10T11:39:55;93986.50;;;30.32;29.62
6528;BME280;64597;42.664;23.256;2023-06-10T11:42:21;93994.13;;;30.23;30.07
6528;BME280;64597;42.664;23.256;2023-06-10T11:44:51;93979.97;;;30.06;29.84
6528;BME280;64597;42.664;23.256;2023-06-10T11:47:19;93984.53;;;29.99;30.02
6528;BME280;64597;42.664;23.256;2023-06-10T11:49:45;93982.50;;;29.92;29.89
6528;BME280;64597;42.664;23.256;2023-06-10T11:52:11;93974.25;;;29.85;29.40
6528;BME280;64597;42.664;23.256;2023-06-10T11:54:37;93977.25;;;29.77;30.11
6528;BME280;64597;42.664;23.256;2023-06-10T11:57:03;93972.50;;;29.70;30.40
6528;BME280;64597;42.664;23.256;2023-06-10T11:59:29;93982.84;;;29.61;30.83
6528;BME280;64597;42.664;23.256;2023-06-10T12:01:55;93979.19;;;29.50;30.26
6528;BME280;64597;42.664;23.256;2023-06-10T12:04:21;93961.22;;;29.42;30.74
6528;BME280;64597;42.664;23.256;2023-06-10T12:06:50;93983.91;;;29.53;30.53
6528;BME280;64597;42.664;23.256;2023-06-10T12:09:29;93965.09;;;29.41;30.46
6528;BME280;64597;42.664;23.256;2023-06-10T12:11:58;93961.19;;;29.39;31.18
6528;BME280;64597;42.664;23.256;2023-06-10T12:14:50;93929.06;;;29.18;31.46
6528;BME280;64597;42.664;23.256;2023-06-10T12:17:17;93971.31;;;29.42;32.14
6528;BME280;64597;42.664;23.256;2023-06-10T12:19:43;93965.81;;;29.38;32.53
6528;BME280;64597;42.664;23.256;2023-06-10T12:22:08;93966.88;;;29.30;31.74
6528;BME280;64597;42.664;23.256;2023-06-10T12:24:43;93967.13;;;29.21;31.74
6528;BME280;64597;42.664;23.256;2023-06-10T12:27:12;93956.66;;;28.97;31.87
6528;BME280;64597;42.664;23.256;2023-06-10T12:29:38;93973.09;;;29.08;32.02
6528;BME280;64597;42.664;23.256;2023-06-10T12:32:04;93953.13;;;28.97;32.26
6528;BME280;64597;42.664;23.256;2023-06-10T12:34:38;93947.41;;;29.02;31.81
6528;BME280;64597;42.664;23.256;2023-06-10T12:37:06;93957.59;;;29.08;32.79
6528;BME280;64597;42.664;23.256;2023-06-10T12:39:38;93954.34;;;28.99;31.79
6528;BME280;64597;42.664;23.256;2023-06-10T12:42:04;93952.44;;;29.00;32.40
6528;BME280;64597;42.664;23.256;2023-06-10T12:44:40;93950.44;;;28.97;32.03
6528;BME280;64597;42.664;23.256;2023-06-10T12:47:10;93948.22;;;29.02;34.12
6528;BME280;64597;42.664;23.256;2023-06-10T12:49:38;93908.97;;;28.74;32.80
6528;BME280;64597;42.664;23.256;2023-06-10T12:52:04;93953.94;;;28.97;31.93
6528;BME280;64597;42.664;23.256;2023-06-10T12:54:30;93955.75;;;28.90;32.12
6528;BME280;64597;42.664;23.256;2023-06-10T12:56:56;93958.34;;;28.83;33.00
6528;BME280;64597;42.664;23.256;2023-06-10T12:59:21;93956.47;;;28.87;32.94
6528;BME280;64597;42.664;23.256;2023-06-10T13:01:54;93959.78;;;28.77;31.35
6528;BME280;64597;42.664;23.256;2023-06-10T13:04:20;93953.84;;;28.68;31.10
6528;BME280;64597;42.664;23.256;2023-06-10T13:06:47;93951.16;;;28.48;31.52
6528;BME280;64597;42.664;23.256;2023-06-10T13:09:16;93969.66;;;28.43;31.32
6528;BME280;64597;42.664;23.256;2023-06-10T13:11:41;93960.41;;;28.25;32.37
6528;BME280;64597;42.664;23.256;2023-06-10T13:14:08;93970.63;;;28.12;33.18
6528;BME280;64597;42.664;23.256;2023-06-10T13:16:35;93981.28;;;28.02;32.71
6528;BME280;64597;42.664;23.256;2023-06-10T13:19:03;93987.59;;;27.90;35.33
6528;BME280;64597;42.664;23.256;2023-06-10T13:21:30;93992.38;;;27.78;36.60
6528;BME280;64597;42.664;23.256;2023-06-10T13:23:56;94001.31;;;27.62;37.10
6528;BME280;64597;42.664;23.256;2023-06-10T13:26:21;94000.41;;;27.55;37.53